sensor_id;sensor_type;location;lat;lon;timestamp;pressure;altitude;pressure_sealevel;temperature;humidity
19286;BME280;9776;50.798;6.430;2023-03-21T00:01:22;100342.38;;;12.11;57.58
19286;BME280;9776;50.798;6.430;2023-03-21T00:14:07;100325.00;;;12.08;58.00
19286;BME280;9776;50.798;6.430;2023-03-21T00:16:51;100327.16;;;12.13;57.76
19286;BME280;9776;50.798;6.430;2023-03-21T00:19:44;100324.38;;;12.14;57.66
19286;BME280;9776;50.798;6.430;2023-03-21T00:22:28;100324.38;;;12.14;57.95
19286;BME280;9776;50.798;6.430;2023-03-21T00:28:03;100319.09;;;12.14;57.83
19286;BME280;9776;50.798;6.430;2023-03-21T00:34:41;100318.38;;;12.04;57.73
19286;BME280;9776;50.798;6.430;2023-03-21T00:37:35;100319.72;;;12.08;57.82
19286;BME280;9776;50.798;6.430;2023-03-21T00:40:52;100313.75;;;12.06;57.88
19286;BME280;9776;50.798;6.430;2023-03-21T00:43:50;100314.63;;;12.15;57.79
19286;BME280;9776;50.798;6.430;2023-03-21T00:46:43;100310.13;;;12.15;57.51
19286;BME280;9776;50.798;6.430;2023-03-21T00:49:32;100313.41;;;12.09;57.78
19286;BME280;9776;50.798;6.430;2023-03-21T00:52:35;100309.47;;;12.13;57.91
19286;BME280;9776;50.798;6.430;2023-03-21T00:55:30;100308.19;;;12.17;57.73
19286;BME280;9776;50.798;6.430;2023-03-21T01:04:54;100301.19;;;12.00;58.28
19286;BME280;9776;50.798;6.430;2023-03-21T01:07:40;100300.03;;;12.03;58.11
19286;BME280;9776;50.798;6.430;2023-03-21T01:10:41;100295.88;;;12.00;58.40
19286;BME280;9776;50.798;6.430;2023-03-21T01:13:45;100294.03;;;12.01;58.40
19286;BME280;9776;50.798;6.430;2023-03-21T01:16:33;100292.75;;;12.05;58.34
19286;BME280;9776;50.798;6.430;2023-03-21T01:19:23;100289.13;;;12.06;58.42
19286;BME280;9776;50.798;6.430;2023-03-21T01:35:21;100269.56;;;11.99;58.99
19286;BME280;9776;50.798;6.430;2023-03-21T01:38:22;100274.19;;;11.97;59.03
19286;BME280;9776;50.798;6.430;2023-03-21T01:41:55;100266.72;;;11.92;59.36
19286;BME280;9776;50.798;6.430;2023-03-21T01:51:26;100254.84;;;11.96;59.43
19286;BME280;9776;50.798;6.430;2023-03-21T01:54:29;100244.28;;;11.96;59.39
19286;BME280;9776;50.798;6.430;2023-03-21T02:01:01;100235.69;;;12.02;59.45
19286;BME280;9776;50.798;6.430;2023-03-21T02:03:56;100235.69;;;12.02;59.32
19286;BME280;9776;50.798;6.430;2023-03-21T02:10:58;100231.06;;;12.04;59.38
19286;BME280;9776;50.798;6.430;2023-03-21T02:13:40;100229.13;;;12.06;59.39
19286;BME280;9776;50.798;6.430;2023-03-21T02:16:23;100222.16;;;12.05;59.45
19286;BME280;9776;50.798;6.430;2023-03-21T02:22:50;100218.78;;;11.87;60.04
19286;BME280;9776;50.798;6.430;2023-03-21T02:37:09;100208.22;;;11.95;60.17
19286;BME280;9776;50.798;6.430;2023-03-21T02:40:22;100207.91;;;11.98;59.86
19286;BME280;9776;50.798;6.430;2023-03-21T02:43:38;100209.22;;;11.94;60.07
19286;BME280;9776;50.798;6.430;2023-03-21T02:46:44;100206.91;;;11.91;60.23
19286;BME280;9776;50.798;6.430;2023-03-21T02:49:49;100197.81;;;11.93;60.16
19286;BME280;9776;50.798;6.430;2023-03-21T03:07:04;100185.09;;;11.97;60.65
19286;BME280;9776;50.798;6.430;2023-03-21T03:10:30;100184.28;;;11.97;60.71
19286;BME280;9776;50.798;6.430;2023-03-21T03:13:41;100168.72;;;11.93;60.80
19286;BME280;9776;50.798;6.430;2023-03-21T03:16:51;100180.97;;;11.94;60.81
19286;BME280;9776;50.798;6.430;2023-03-21T03:23:10;100175.81;;;11.93;60.89
19286;BME280;9776;50.798;6.430;2023-03-21T03:26:06;100175.34;;;11.98;61.01
19286;BME280;9776;50.798;6.430;2023-03-21T03:32:28;100170.53;;;11.85;61.17
19286;BME280;9776;50.798;6.430;2023-03-21T03:35:38;100169.69;;;11.84;61.39
19286;BME280;9776;50.798;6.430;2023-03-21T03:38:08;100162.41;;;11.86;61.26
19286;BME280;9776;50.798;6.430;2023-03-21T03:40:47;100167.69;;;11.86;61.37
19286;BME280;9776;50.798;6.430;2023-03-21T03:48:10;100153.81;;;11.76;61.48
19286;BME280;9776;50.798;6.430;2023-03-21T04:01:54;100155.94;;;11.73;61.92
19286;BME280;9776;50.798;6.430;2023-03-21T04:07:58;100154.31;;;11.80;61.65
19286;BME280;9776;50.798;6.430;2023-03-21T04:10:39;100146.22;;;11.81;61.64
19286;BME280;9776;50.798;6.430;2023-03-21T04:13:52;100147.16;;;11.72;61.83
19286;BME280;9776;50.798;6.430;2023-03-21T04:22:46;100149.03;;;11.80;61.53
19286;BME280;9776;50.798;6.430;2023-03-21T04:25:42;100147.69;;;11.84;61.70
19286;BME280;9776;50.798;6.430;2023-03-21T04:35:47;100139.09;;;11.82;61.50
19286;BME280;9776;50.798;6.430;2023-03-21T04:42:36;100143.75;;;11.80;61.46
19286;BME280;9776;50.798;6.430;2023-03-21T04:45:49;100144.41;;;11.82;61.56
19286;BME280;9776;50.798;6.430;2023-03-21T04:48:38;100140.09;;;11.81;61.68
19286;BME280;9776;50.798;6.430;2023-03-21T04:51:19;100139.44;;;11.79;61.96
19286;BME280;9776;50.798;6.430;2023-03-21T04:53:51;100135.28;;;11.76;62.13
19286;BME280;9776;50.798;6.430;2023-03-21T05:03:19;100123.88;;;11.76;62.51
19286;BME280;9776;50.798;6.430;2023-03-21T05:09:03;100133.41;;;11.69;62.60
19286;BME280;9776;50.798;6.430;2023-03-21T05:15:40;100132.06;;;11.57;63.07
19286;BME280;9776;50.798;6.430;2023-03-21T05:22:20;100141.34;;;11.69;63.15
19286;BME280;9776;50.798;6.430;2023-03-21T05:25:15;100137.28;;;11.74;63.07
19286;BME280;9776;50.798;6.430;2023-03-21T05:28:27;100144.22;;;11.75;63.27
19286;BME280;9776;50.798;6.430;2023-03-21T05:55:04;100157.28;;;11.77;63.73
19286;BME280;9776;50.798;6.430;2023-03-21T05:57:54;100155.28;;;11.71;64.01
19286;BME280;9776;50.798;6.430;2023-03-21T06:01:09;100161.19;;;11.65;64.25
19286;BME280;9776;50.798;6.430;2023-03-21T06:03:41;100157.88;;;11.63;64.52
19286;BME280;9776;50.798;6.430;2023-03-21T06:06:46;100167.09;;;11.59;64.80
19286;BME280;9776;50.798;6.430;2023-03-21T06:16:53;100161.31;;;11.63;64.86
19286;BME280;9776;50.798;6.430;2023-03-21T06:19:45;100165.81;;;11.63;64.82
19286;BME280;9776;50.798;6.430;2023-03-21T06:22:43;100166.75;;;11.54;65.15
19286;BME280;9776;50.798;6.430;2023-03-21T06:25:28;100168.28;;;11.64;65.23
19286;BME280;9776;50.798;6.430;2023-03-21T06:28:24;100166.97;;;11.68;65.02
19286;BME280;9776;50.798;6.430;2023-03-21T06:31:54;100165.63;;;11.64;65.22
19286;BME280;9776;50.798;6.430;2023-03-21T06:34:56;100158.91;;;11.70;65.46
19286;BME280;9776;50.798;6.430;2023-03-21T06:38:17;100161.22;;;11.73;65.39
19286;BME280;9776;50.798;6.430;2023-03-21T06:40:47;100156.28;;;11.78;65.63
19286;BME280;9776;50.798;6.430;2023-03-21T06:44:01;100156.25;;;11.70;65.77
19286;BME280;9776;50.798;6.430;2023-03-21T06:47:44;100156.72;;;11.65;65.89
19286;BME280;9776;50.798;6.430;2023-03-21T06:50:48;100152.31;;;11.74;65.78
19286;BME280;9776;50.798;6.430;2023-03-21T06:54:12;100143.75;;;11.80;65.88
19286;BME280;9776;50.798;6.430;2023-03-21T06:57:04;100144.41;;;11.90;65.98
19286;BME280;9776;50.798;6.430;2023-03-21T06:59:51;100152.69;;;11.95;65.96
19286;BME280;9776;50.798;6.430;2023-03-21T07:02:58;100140.28;;;11.95;66.01
19286;BME280;9776;50.798;6.430;2023-03-21T07:05:43;100137.81;;;12.02;66.26
19286;BME280;9776;50.798;6.430;2023-03-21T07:08:24;100136.16;;;12.01;66.41
19286;BME280;9776;50.798;6.430;2023-03-21T07:11:20;100132.53;;;12.02;66.46
19286;BME280;9776;50.798;6.430;2023-03-21T07:17:46;100141.94;;;11.97;66.70
19286;BME280;9776;50.798;6.430;2023-03-21T07:23:37;100131.84;;;11.92;66.83
19286;BME280;9776;50.798;6.430;2023-03-21T07:29:33;100134.16;;;11.87;67.54
19286;BME280;9776;50.798;6.430;2023-03-21T07:35:47;100133.00;;;11.81;67.51
19286;BME280;9776;50.798;6.430;2023-03-21T07:38:38;100134.47;;;11.84;67.59
19286;BME280;9776;50.798;6.430;2023-03-21T07:41:54;100138.59;;;11.86;67.58
19286;BME280;9776;50.798;6.430;2023-03-21T07:44:31;100136.81;;;11.95;67.67
19286;BME280;9776;50.798;6.430;2023-03-21T07:47:42;100143.75;;;11.96;67.59
19286;BME280;9776;50.798;6.430;2023-03-21T07:51:06;100143.09;;;11.94;67.69
19286;BME280;9776;50.798;6.430;2023-03-21T07:53:37;100134.53;;;12.00;67.67
19286;BME280;9776;50.798;6.430;2023-03-21T07:56:45;100135.31;;;11.92;67.65
19286;BME280;9776;50.798;6.430;2023-03-21T08:02:46;100141.13;;;11.96;67.72
19286;BME280;9776;50.798;6.430;2023-03-21T08:09:03;100145.38;;;11.89;67.99
19286;BME280;9776;50.798;6.430;2023-03-21T08:11:48;100140.78;;;11.91;67.84
19286;BME280;9776;50.798;6.430;2023-03-21T08:14:54;100136.47;;;11.90;67.93
19286;BME280;9776;50.798;6.430;2023-03-21T08:17:46;100133.38;;;11.94;67.80
19286;BME280;9776;50.798;6.430;2023-03-21T08:23:57;100134.53;;;12.00;67.78
19286;BME280;9776;50.798;6.430;2023-03-21T08:26:44;100137.19;;;12.08;67.60
19286;BME280;9776;50.798;6.430;2023-03-21T08:29:49;100132.53;;;12.10;67.40
19286;BME280;9776;50.798;6.430;2023-03-21T08:32:40;100135.84;;;12.12;67.33
19286;BME280;9776;50.798;6.430;2023-03-21T08:35:35;100132.91;;;12.23;67.31
19286;BME280;9776;50.798;6.430;2023-03-21T08:38:36;100142.47;;;12.32;67.15
19286;BME280;9776;50.798;6.430;2023-03-21T08:41:56;100138.34;;;12.38;67.06
19286;BME280;9776;50.798;6.430;2023-03-21T08:48:20;100148.09;;;12.53;66.33
19286;BME280;9776;50.798;6.430;2023-03-21T08:51:14;100140.66;;;12.57;66.33
19286;BME280;9776;50.798;6.430;2023-03-21T08:54:19;100146.09;;;12.56;66.46
19286;BME280;9776;50.798;6.430;2023-03-21T09:00:41;100158.38;;;12.48;66.24
19286;BME280;9776;50.798;6.430;2023-03-21T09:07:21;100140.16;;;12.62;66.24
19286;BME280;9776;50.798;6.430;2023-03-21T09:10:33;100140.50;;;12.67;65.78
19286;BME280;9776;50.798;6.430;2023-03-21T09:13:16;100138.16;;;12.80;65.63
19286;BME280;9776;50.798;6.430;2023-03-21T09:16:32;100138.78;;;12.82;65.65
19286;BME280;9776;50.798;6.430;2023-03-21T09:19:12;100144.09;;;12.98;65.27
19286;BME280;9776;50.798;6.430;2023-03-21T09:22:19;100139.09;;;13.03;64.96
19286;BME280;9776;50.798;6.430;2023-03-21T09:28:33;100139.09;;;13.11;64.74
19286;BME280;9776;50.798;6.430;2023-03-21T09:31:14;100132.63;;;13.14;64.56
19286;BME280;9776;50.798;6.430;2023-03-21T09:34:15;100138.41;;;13.17;64.43
19286;BME280;9776;50.798;6.430;2023-03-21T09:37:01;100124.97;;;13.27;63.87
19286;BME280;9776;50.798;6.430;2023-03-21T09:40:17;100127.28;;;13.30;63.96
19286;BME280;9776;50.798;6.430;2023-03-21T09:58:06;100114.88;;;13.30;63.68
19286;BME280;9776;50.798;6.430;2023-03-21T10:04:25;100104.88;;;13.40;63.20
19286;BME280;9776;50.798;6.430;2023-03-21T10:07:05;100097.66;;;13.57;62.62
19286;BME280;9776;50.798;6.430;2023-03-21T10:10:14;100095.69;;;13.82;61.99
19286;BME280;9776;50.798;6.430;2023-03-21T10:16:29;100083.34;;;14.11;61.19
19286;BME280;9776;50.798;6.430;2023-03-21T10:19:16;100081.09;;;14.23;61.11
19286;BME280;9776;50.798;6.430;2023-03-21T10:22:04;100083.53;;;14.33;60.90
19286;BME280;9776;50.798;6.430;2023-03-21T10:28:10;100081.78;;;14.25;61.03
19286;BME280;9776;50.798;6.430;2023-03-21T10:31:45;100072.72;;;14.11;61.25
19286;BME280;9776;50.798;6.430;2023-03-21T10:37:51;100057.53;;;14.05;61.68
19286;BME280;9776;50.798;6.430;2023-03-21T10:41:13;100065.09;;;13.94;61.88
19286;BME280;9776;50.798;6.430;2023-03-21T10:44:45;100053.41;;;14.03;61.67
19286;BME280;9776;50.798;6.430;2023-03-21T11:01:45;100023.97;;;14.12;61.15
19286;BME280;9776;50.798;6.430;2023-03-21T11:04:44;100013.53;;;14.11;61.18
19286;BME280;9776;50.798;6.430;2023-03-21T11:07:59;100012.47;;;13.97;61.31
19286;BME280;9776;50.798;6.430;2023-03-21T11:14:43;100007.09;;;13.91;61.76
19286;BME280;9776;50.798;6.430;2023-03-21T11:21:12;100014.28;;;13.82;61.63
19286;BME280;9776;50.798;6.430;2023-03-21T11:24:20;100020.34;;;13.68;61.86
19286;BME280;9776;50.798;6.430;2023-03-21T11:27:09;100024.78;;;13.53;62.07
19286;BME280;9776;50.798;6.430;2023-03-21T11:30:24;100023.56;;;13.33;62.09
19286;BME280;9776;50.798;6.430;2023-03-21T11:33:43;100029.66;;;13.33;61.72
19286;BME280;9776;50.798;6.430;2023-03-21T11:37:36;100027.13;;;13.17;61.66
19286;BME280;9776;50.798;6.430;2023-03-21T11:41:09;100024.53;;;12.93;61.81
19286;BME280;9776;50.798;6.430;2023-03-21T11:44:23;100018.78;;;12.89;61.43
19286;BME280;9776;50.798;6.430;2023-03-21T11:47:07;100024.34;;;13.02;61.65
19286;BME280;9776;50.798;6.430;2023-03-21T11:50:23;100025.09;;;13.19;61.38
19286;BME280;9776;50.798;6.430;2023-03-21T11:57:32;100010.75;;;13.36;60.60
19286;BME280;9776;50.798;6.430;2023-03-21T12:00:58;100006.66;;;13.56;60.17
19286;BME280;9776;50.798;6.430;2023-03-21T12:03:59;100007.38;;;13.73;60.14
19286;BME280;9776;50.798;6.430;2023-03-21T12:07:08;100009.44;;;13.86;59.71
19286;BME280;9776;50.798;6.430;2023-03-21T12:10:25;99999.25;;;14.12;59.11
19286;BME280;9776;50.798;6.430;2023-03-21T12:27:02;99980.84;;;14.62;57.56
19286;BME280;9776;50.798;6.430;2023-03-21T12:46:53;99959.78;;;15.47;55.40
19286;BME280;9776;50.798;6.430;2023-03-21T12:53:34;99961.06;;;15.72;55.09
19286;BME280;9776;50.798;6.430;2023-03-21T12:59:38;99932.63;;;16.01;54.60
19286;BME280;9776;50.798;6.430;2023-03-21T13:03:20;99934.34;;;16.15;54.11
19286;BME280;9776;50.798;6.430;2023-03-21T13:09:19;99925.94;;;16.86;52.67
19286;BME280;9776;50.798;6.430;2023-03-21T13:12:35;99914.34;;;17.14;52.03
19286;BME280;9776;50.798;6.430;2023-03-21T13:15:37;99923.44;;;17.45;51.20
19286;BME280;9776;50.798;6.430;2023-03-21T13:22:10;99914.22;;;17.87;49.64
19286;BME280;9776;50.798;6.430;2023-03-21T13:25:05;99908.25;;;18.05;49.65
19286;BME280;9776;50.798;6.430;2023-03-21T13:27:53;99899.25;;;17.86;49.70
19286;BME280;9776;50.798;6.430;2023-03-21T13:31:18;99897.19;;;17.88;49.72
19286;BME280;9776;50.798;6.430;2023-03-21T13:44:30;99876.22;;;17.72;49.07
19286;BME280;9776;50.798;6.430;2023-03-21T13:47:50;99871.72;;;17.40;49.39
19286;BME280;9776;50.798;6.430;2023-03-21T13:50:58;99871.69;;;17.27;49.09
19286;BME280;9776;50.798;6.430;2023-03-21T13:54:15;99871.88;;;17.19;48.99
19286;BME280;9776;50.798;6.430;2023-03-21T13:57:37;99860.09;;;16.80;49.31
19286;BME280;9776;50.798;6.430;2023-03-21T14:14:25;99868.94;;;16.81;48.15
19286;BME280;9776;50.798;6.430;2023-03-21T14:20:38;99853.31;;;16.65;48.20
19286;BME280;9776;50.798;6.430;2023-03-21T14:27:56;99851.00;;;16.55;48.15
19286;BME280;9776;50.798;6.430;2023-03-21T14:34:01;99832.28;;;17.02;47.20
19286;BME280;9776;50.798;6.430;2023-03-21T14:36:42;99837.19;;;16.99;46.96
19286;BME280;9776;50.798;6.430;2023-03-21T14:39:28;99839.47;;;17.22;46.73
19286;BME280;9776;50.798;6.430;2023-03-21T14:42:23;99840.09;;;17.37;46.36
19286;BME280;9776;50.798;6.430;2023-03-21T14:48:48;99831.66;;;17.46;46.03
19286;BME280;9776;50.798;6.430;2023-03-21T14:51:37;99831.91;;;17.58;45.59
19286;BME280;9776;50.798;6.430;2023-03-21T14:54:56;99824.50;;;17.53;45.68
19286;BME280;9776;50.798;6.430;2023-03-21T14:58:15;99817.09;;;17.49;45.82
19286;BME280;9776;50.798;6.430;2023-03-21T15:01:16;99820.63;;;17.43;45.66
19286;BME280;9776;50.798;6.430;2023-03-21T15:08:14;99804.56;;;17.03;45.51
19286;BME280;9776;50.798;6.430;2023-03-21T15:11:18;99795.16;;;16.88;45.58
19286;BME280;9776;50.798;6.430;2023-03-21T15:14:23;99781.97;;;16.80;45.82
19286;BME280;9776;50.798;6.430;2023-03-21T15:17:18;99786.31;;;16.81;45.67
19286;BME280;9776;50.798;6.430;2023-03-21T15:29:52;99779.56;;;16.85;44.48
19286;BME280;9776;50.798;6.430;2023-03-21T15:33:11;99787.72;;;16.70;44.68
19286;BME280;9776;50.798;6.430;2023-03-21T15:36:00;99784.03;;;16.71;44.68
19286;BME280;9776;50.798;6.430;2023-03-21T15:39:32;99781.34;;;16.58;44.49
19286;BME280;9776;50.798;6.430;2023-03-21T15:42:33;99789.50;;;16.50;44.80
19286;BME280;9776;50.798;6.430;2023-03-21T15:59:02;99772.94;;;16.14;44.94
19286;BME280;9776;50.798;6.430;2023-03-21T16:21:32;99790.78;;;15.72;46.30
19286;BME280;9776;50.798;6.430;2023-03-21T16:24:04;99789.06;;;15.65;46.50
19286;BME280;9776;50.798;6.430;2023-03-21T16:26:33;99788.63;;;15.61;46.58
19286;BME280;9776;50.798;6.430;2023-03-21T16:29:05;99785.75;;;15.56;46.39
19286;BME280;9776;50.798;6.430;2023-03-21T16:31:34;99791.44;;;15.53;46.76
19286;BME280;9776;50.798;6.430;2023-03-21T16:34:03;99792.66;;;15.51;46.71
19286;BME280;9776;50.798;6.430;2023-03-21T16:36:39;99792.66;;;15.51;46.46
19286;BME280;9776;50.798;6.430;2023-03-21T16:39:17;99785.91;;;15.48;46.70
19286;BME280;9776;50.798;6.430;2023-03-21T16:41:46;99792.16;;;15.41;46.83
19286;BME280;9776;50.798;6.430;2023-03-21T16:44:13;99798.63;;;15.31;47.17
19286;BME280;9776;50.798;6.430;2023-03-21T16:46:40;99795.31;;;15.29;47.23
19286;BME280;9776;50.798;6.430;2023-03-21T16:49:21;99786.72;;;15.27;47.00
19286;BME280;9776;50.798;6.430;2023-03-21T16:51:51;99786.97;;;15.32;47.14
19286;BME280;9776;50.798;6.430;2023-03-21T16:54:18;99788.63;;;15.33;47.25
19286;BME280;9776;50.798;6.430;2023-03-21T16:56:46;99790.44;;;15.33;47.44
19286;BME280;9776;50.798;6.430;2023-03-21T16:59:14;99793.09;;;15.33;47.46
19286;BME280;9776;50.798;6.430;2023-03-21T17:01:41;99804.56;;;15.33;47.32
19286;BME280;9776;50.798;6.430;2023-03-21T17:04:10;99801.09;;;15.33;47.47
19286;BME280;9776;50.798;6.430;2023-03-21T17:06:47;99815.03;;;15.35;47.44
19286;BME280;9776;50.798;6.430;2023-03-21T17:09:18;99816.22;;;15.32;47.36
19286;BME280;9776;50.798;6.430;2023-03-21T17:11:45;99814.13;;;15.28;47.43
19286;BME280;9776;50.798;6.430;2023-03-21T17:14:12;99828.44;;;15.27;47.65
19286;BME280;9776;50.798;6.430;2023-03-21T17:16:41;99834.13;;;15.24;47.61
19286;BME280;9776;50.798;6.430;2023-03-21T17:19:11;99828.66;;;15.25;47.93
19286;BME280;9776;50.798;6.430;2023-03-21T17:21:39;99837.06;;;15.29;47.70
19286;BME280;9776;50.798;6.430;2023-03-21T17:24:06;99836.63;;;15.25;48.05
19286;BME280;9776;50.798;6.430;2023-03-21T17:26:34;99845.97;;;15.21;47.82
19286;BME280;9776;50.798;6.430;2023-03-21T17:29:02;99846.75;;;15.15;47.93
19286;BME280;9776;50.798;6.430;2023-03-21T17:31:31;99842.63;;;15.13;47.95
19286;BME280;9776;50.798;6.430;2023-03-21T17:33:59;99847.50;;;15.09;48.32
19286;BME280;9776;50.798;6.430;2023-03-21T17:36:29;99845.88;;;15.08;48.31
19286;BME280;9776;50.798;6.430;2023-03-21T17:38:56;99846.63;;;15.02;48.13
19286;BME280;9776;50.798;6.430;2023-03-21T17:41:23;99843.34;;;15.00;48.26
19286;BME280;9776;50.798;6.430;2023-03-21T17:43:51;99847.06;;;15.06;48.47
19286;BME280;9776;50.798;6.430;2023-03-21T17:46:22;99852.56;;;15.04;48.46
19286;BME280;9776;50.798;6.430;2023-03-21T17:48:52;99845.72;;;14.95;48.86
19286;BME280;9776;50.798;6.430;2023-03-21T17:51:19;99848.72;;;14.86;48.96
19286;BME280;9776;50.798;6.430;2023-03-21T17:53:48;99849.09;;;14.83;48.87
19286;BME280;9776;50.798;6.430;2023-03-21T17:56:20;99845.78;;;14.81;48.94
19286;BME280;9776;50.798;6.430;2023-03-21T17:58:47;99840.22;;;14.75;49.17
19286;BME280;9776;50.798;6.430;2023-03-21T18:01:15;99841.88;;;14.76;48.79
19286;BME280;9776;50.798;6.430;2023-03-21T18:03:42;99836.94;;;14.73;49.06
19286;BME280;9776;50.798;6.430;2023-03-21T18:06:13;99837.94;;;14.72;49.02
19286;BME280;9776;50.798;6.430;2023-03-21T18:08:40;99851.41;;;14.71;49.27
19286;BME280;9776;50.798;6.430;2023-03-21T18:11:08;99841.31;;;14.66;49.45
19286;BME280;9776;50.798;6.430;2023-03-21T18:13:37;99851.41;;;14.71;49.39
19286;BME280;9776;50.798;6.430;2023-03-21T18:16:04;99845.91;;;14.72;49.49
19286;BME280;9776;50.798;6.430;2023-03-21T18:18:33;99852.25;;;14.71;49.32
19286;BME280;9776;50.798;6.430;2023-03-21T18:21:00;99843.44;;;14.71;49.32
19286;BME280;9776;50.798;6.430;2023-03-21T18:23:26;99840.59;;;14.72;49.33
19286;BME280;9776;50.798;6.430;2023-03-21T18:25:53;99844.28;;;14.71;49.65
19286;BME280;9776;50.798;6.430;2023-03-21T18:28:20;99835.03;;;14.67;49.54
19286;BME280;9776;50.798;6.430;2023-03-21T18:30:48;99838.03;;;14.64;49.91
19286;BME280;9776;50.798;6.430;2023-03-21T18:33:15;99843.94;;;14.60;49.86
19286;BME280;9776;50.798;6.430;2023-03-21T18:35:43;99838.78;;;14.58;50.00
19286;BME280;9776;50.798;6.430;2023-03-21T18:38:09;99844.47;;;14.55;50.25
19286;BME280;9776;50.798;6.430;2023-03-21T18:40:36;99842.19;;;14.52;49.98
19286;BME280;9776;50.798;6.430;2023-03-21T18:43:04;99841.56;;;14.50;49.96
19286;BME280;9776;50.798;6.430;2023-03-21T18:45:31;99841.09;;;14.47;50.32
19286;BME280;9776;50.798;6.430;2023-03-21T18:47:58;99844.13;;;14.44;50.25
19286;BME280;9776;50.798;6.430;2023-03-21T18:50:25;99851.25;;;14.43;50.38
19286;BME280;9776;50.798;6.430;2023-03-21T18:52:53;99852.94;;;14.44;50.20
19286;BME280;9776;50.798;6.430;2023-03-21T18:55:22;99845.31;;;14.41;50.31
19286;BME280;9776;50.798;6.430;2023-03-21T18:57:49;99848.56;;;14.37;50.69
19286;BME280;9776;50.798;6.430;2023-03-21T19:00:18;99854.41;;;14.32;50.68
19286;BME280;9776;50.798;6.430;2023-03-21T19:02:48;99849.25;;;14.31;50.66
19286;BME280;9776;50.798;6.430;2023-03-21T19:05:16;99842.50;;;14.28;51.12
19286;BME280;9776;50.798;6.430;2023-03-21T19:07:44;99843.94;;;14.31;50.99
19286;BME280;9776;50.798;6.430;2023-03-21T19:10:14;99840.47;;;14.30;50.87
19286;BME280;9776;50.798;6.430;2023-03-21T19:12:41;99845.31;;;14.27;51.23
19286;BME280;9776;50.798;6.430;2023-03-21T19:15:08;99846.50;;;14.24;51.10
19286;BME280;9776;50.798;6.430;2023-03-21T19:17:35;99844.47;;;14.26;51.45
19286;BME280;9776;50.798;6.430;2023-03-21T19:20:03;99847.78;;;14.28;51.28
19286;BME280;9776;50.798;6.430;2023-03-21T19:22:30;99847.13;;;14.26;51.29
19286;BME280;9776;50.798;6.430;2023-03-21T19:24:57;99848.78;;;14.27;51.40
19286;BME280;9776;50.798;6.430;2023-03-21T19:27:25;99841.84;;;14.26;51.50
19286;BME280;9776;50.798;6.430;2023-03-21T19:29:52;99841.19;;;14.24;51.44
19286;BME280;9776;50.798;6.430;2023-03-21T19:32:19;99846.72;;;14.23;51.95
19286;BME280;9776;50.798;6.430;2023-03-21T19:34:45;99842.75;;;14.18;51.96
19286;BME280;9776;50.798;6.430;2023-03-21T19:37:15;99843.97;;;14.16;51.86
19286;BME280;9776;50.798;6.430;2023-03-21T19:39:42;99843.50;;;14.12;51.95
19286;BME280;9776;50.798;6.430;2023-03-21T19:42:08;99843.88;;;14.09;52.27
19286;BME280;9776;50.798;6.430;2023-03-21T19:44:36;99845.88;;;14.07;52.40
19286;BME280;9776;50.798;6.430;2023-03-21T19:47:03;99833.97;;;14.03;52.20
19286;BME280;9776;50.798;6.430;2023-03-21T19:49:31;99837.66;;;14.02;52.43
19286;BME280;9776;50.798;6.430;2023-03-21T19:51:59;99836.16;;;14.00;52.80
19286;BME280;9776;50.798;6.430;2023-03-21T19:54:25;99842.31;;;14.00;52.59
19286;BME280;9776;50.798;6.430;2023-03-21T19:56:54;99849.44;;;14.00;52.65
19286;BME280;9776;50.798;6.430;2023-03-21T19:59:21;99845.31;;;13.97;53.08
19286;BME280;9776;50.798;6.430;2023-03-21T20:01:49;99841.03;;;13.96;52.82
19286;BME280;9776;50.798;6.430;2023-03-21T20:04:16;99834.81;;;13.89;53.35
19286;BME280;9776;50.798;6.430;2023-03-21T20:06:43;99839.63;;;13.86;53.45
19286;BME280;9776;50.798;6.430;2023-03-21T20:09:10;99835.38;;;13.85;53.26
19286;BME280;9776;50.798;6.430;2023-03-21T20:11:37;99836.63;;;13.89;53.60
19286;BME280;9776;50.798;6.430;2023-03-21T20:14:04;99838.56;;;13.95;53.54
19286;BME280;9776;50.798;6.430;2023-03-21T20:16:31;99827.94;;;13.95;53.55
19286;BME280;9776;50.798;6.430;2023-03-21T20:18:59;99828.31;;;13.92;53.72
19286;BME280;9776;50.798;6.430;2023-03-21T20:21:26;99818.25;;;13.87;53.83
19286;BME280;9776;50.798;6.430;2023-03-21T20:23:57;99814.50;;;13.82;54.31
19286;BME280;9776;50.798;6.430;2023-03-21T20:26:28;99816.22;;;13.75;54.63
19286;BME280;9776;50.798;6.430;2023-03-21T20:28:57;99812.38;;;13.62;54.92
19286;BME280;9776;50.798;6.430;2023-03-21T20:31:24;99819.78;;;13.52;54.92
19286;BME280;9776;50.798;6.430;2023-03-21T20:33:51;99810.88;;;13.45;55.47
19286;BME280;9776;50.798;6.430;2023-03-21T20:36:19;99816.91;;;13.39;55.67
19286;BME280;9776;50.798;6.430;2023-03-21T20:38:46;99801.56;;;13.35;55.89
19286;BME280;9776;50.798;6.430;2023-03-21T20:41:13;99808.19;;;13.31;56.09
19286;BME280;9776;50.798;6.430;2023-03-21T20:43:45;99816.44;;;13.21;56.23
19286;BME280;9776;50.798;6.430;2023-03-21T20:46:12;99812.47;;;13.17;56.40
19286;BME280;9776;50.798;6.430;2023-03-21T20:48:40;99815.81;;;13.11;56.80
19286;BME280;9776;50.798;6.430;2023-03-21T20:51:08;99807.56;;;13.06;56.99
19286;BME280;9776;50.798;6.430;2023-03-21T20:53:37;99816.84;;;13.02;57.16
19286;BME280;9776;50.798;6.430;2023-03-21T20:56:05;99814.75;;;12.97;57.42
19286;BME280;9776;50.798;6.430;2023-03-21T20:58:34;99809.97;;;12.93;57.23
19286;BME280;9776;50.798;6.430;2023-03-21T21:01:01;99814.97;;;12.88;57.51
19286;BME280;9776;50.798;6.430;2023-03-21T21:03:29;99817.34;;;12.83;57.87
19286;BME280;9776;50.798;6.430;2023-03-21T21:06:02;99806.63;;;12.76;57.73
19286;BME280;9776;50.798;6.430;2023-03-21T21:08:29;99808.63;;;12.74;57.88
19286;BME280;9776;50.798;6.430;2023-03-21T21:10:57;99814.09;;;12.73;57.89
19286;BME280;9776;50.798;6.430;2023-03-21T21:13:24;99810.63;;;12.72;57.90
19286;BME280;9776;50.798;6.430;2023-03-21T21:15:51;99804.22;;;12.67;58.07
19286;BME280;9776;50.798;6.430;2023-03-21T21:18:19;99803.06;;;12.61;58.14
19286;BME280;9776;50.798;6.430;2023-03-21T21:20:52;99805.25;;;12.58;58.34
19286;BME280;9776;50.798;6.430;2023-03-21T21:23:18;99804.78;;;12.54;58.46